createdAt,value
2018-04-11T00:01:47.500Z,86.71
2018-04-11T00:04:13.238Z,86.49
2018-04-11T00:06:38.988Z,86.54
2018-04-11T00:09:04.757Z,86.56
2018-04-11T00:11:30.525Z,86.60
2018-04-11T00:13:56.261Z,86.56
2018-04-11T00:16:22.001Z,86.83
2018-04-11T00:18:47.758Z,86.50
2018-04-11T00:21:13.502Z,86.49
2018-04-11T00:23:39.258Z,86.63
2018-04-11T00:26:05.017Z,86.51
2018-04-11T00:28:30.781Z,86.83
2018-04-11T00:30:56.525Z,86.87
2018-04-11T00:33:22.268Z,86.80
2018-04-11T00:35:48.026Z,86.73
2018-04-11T00:38:13.787Z,86.72
2018-04-11T00:40:39.533Z,86.64
2018-04-11T00:43:05.288Z,86.64
2018-04-11T00:45:31.045Z,86.50
2018-04-11T00:47:56.825Z,86.22
2018-04-11T00:50:22.584Z,86.25
2018-04-11T00:53:00.887Z,86.17
2018-04-11T00:55:26.635Z,86.33
2018-04-11T00:57:52.404Z,86.35
2018-04-11T01:00:18.174Z,86.31
2018-04-11T01:02:43.936Z,86.49
2018-04-11T01:05:09.679Z,86.62
2018-04-11T01:07:35.428Z,86.59
2018-04-11T01:10:01.187Z,86.54
2018-04-11T01:12:26.956Z,86.56
2018-04-11T01:14:52.728Z,86.56
2018-04-11T01:17:18.514Z,86.69
2018-04-11T01:19:44.257Z,86.86
2018-04-11T01:22:10.015Z,86.90
2018-04-11T01:24:35.792Z,87.07
2018-04-11T01:27:01.548Z,87.23
2018-04-11T01:29:27.319Z,87.26
2018-04-11T01:31:53.076Z,87.10
2018-04-11T01:34:18.846Z,86.97
2018-04-11T01:36:44.596Z,87.21
2018-04-11T01:39:10.362Z,87.28
2018-04-11T01:41:36.133Z,87.26
2018-04-11T01:44:01.893Z,87.32
2018-04-11T01:46:27.650Z,87.40
2018-04-11T01:48:53.400Z,87.15
2018-04-11T01:51:19.151Z,87.27
2018-04-11T01:53:44.912Z,87.41
2018-04-11T01:56:10.648Z,87.41
2018-04-11T01:58:36.423Z,87.62
2018-04-11T02:01:02.184Z,87.41
2018-04-11T02:03:27.950Z,87.44
2018-04-11T02:05:53.700Z,87.46
2018-04-11T02:08:19.448Z,87.42
2018-04-11T02:10:45.198Z,87.80
2018-04-11T02:13:10.953Z,87.49
2018-04-11T02:15:36.732Z,87.73
2018-04-11T02:18:02.505Z,87.62
2018-04-11T02:20:28.259Z,87.68
2018-04-11T02:22:53.995Z,87.52
2018-04-11T02:25:19.755Z,87.66
2018-04-11T02:27:45.538Z,87.82
2018-04-11T02:30:11.280Z,87.63
2018-04-11T02:32:37.027Z,87.62
2018-04-11T02:35:02.776Z,87.61
2018-04-11T02:37:28.529Z,87.59
2018-04-11T02:39:54.290Z,87.55
2018-04-11T02:42:20.029Z,87.59
2018-04-11T02:44:45.794Z,87.46
2018-04-11T02:47:11.560Z,87.61
2018-04-11T02:49:37.317Z,87.55
2018-04-11T02:52:03.071Z,87.57
2018-04-11T02:54:28.814Z,87.58
2018-04-11T02:56:54.548Z,87.54
2018-04-11T02:59:20.290Z,87.65
2018-04-11T03:01:46.033Z,87.74
2018-04-11T03:04:11.796Z,87.73
2018-04-11T03:06:37.566Z,87.67
2018-04-11T03:09:03.325Z,87.73
2018-04-11T03:11:29.085Z,87.76
2018-04-11T03:13:54.832Z,87.74
2018-04-11T03:16:20.582Z,87.43
2018-04-11T03:18:46.320Z,87.49
2018-04-11T03:21:12.069Z,87.53
2018-04-11T03:23:37.817Z,87.61
2018-04-11T03:26:03.560Z,87.48
2018-04-11T03:28:29.309Z,87.71
2018-04-11T03:30:55.051Z,87.65
2018-04-11T03:33:20.828Z,87.81
2018-04-11T03:35:46.577Z,87.61
2018-04-11T03:38:12.318Z,87.72
2018-04-11T03:40:38.090Z,87.87
2018-04-11T03:43:03.824Z,87.55
2018-04-11T03:45:29.579Z,87.78
2018-04-11T03:47:55.327Z,87.75
2018-04-11T03:50:21.061Z,87.79
2018-04-11T03:52:46.798Z,87.61
2018-04-11T03:55:12.544Z,87.74
2018-04-11T03:57:38.281Z,87.70
2018-04-11T04:00:04.035Z,87.70
2018-04-11T04:02:29.769Z,87.81
2018-04-11T04:04:55.524Z,87.54
2018-04-11T04:07:21.280Z,87.73
2018-04-11T04:09:47.038Z,87.64
2018-04-11T04:12:12.785Z,87.52
2018-04-11T04:14:50.958Z,87.79
2018-04-11T04:17:29.126Z,87.60
2018-04-11T04:20:07.296Z,87.82
2018-04-11T04:22:33.028Z,87.80
2018-04-11T04:24:58.764Z,87.74
2018-04-11T04:27:24.539Z,87.56
2018-04-11T04:29:50.261Z,87.73
2018-04-11T04:32:15.989Z,87.77
2018-04-11T04:34:41.727Z,87.96
2018-04-11T04:37:07.482Z,88.08
2018-04-11T04:39:33.228Z,88.06
2018-04-11T04:41:58.956Z,87.73
2018-04-11T04:44:24.697Z,88.05
2018-04-11T04:46:50.440Z,87.93
2018-04-11T04:49:16.189Z,88.27
2018-04-11T04:51:41.943Z,88.13
2018-04-11T04:54:07.667Z,88.21
2018-04-11T04:56:33.417Z,88.29
2018-04-11T04:58:59.157Z,88.08
2018-04-11T05:01:24.908Z,88.45
2018-04-11T05:03:50.654Z,88.03
2018-04-11T05:06:16.392Z,88.23
2018-04-11T05:08:42.122Z,88.40
2018-04-11T05:11:07.853Z,88.10
2018-04-11T05:13:33.576Z,88.52
2018-04-11T05:15:59.329Z,88.33
2018-04-11T05:18:25.093Z,88.27
2018-04-11T05:20:50.832Z,88.37
2018-04-11T05:23:16.585Z,88.51
2018-04-11T05:25:42.357Z,88.39
2018-04-11T05:28:08.113Z,88.19
2018-04-11T05:30:33.852Z,88.25
2018-04-11T05:32:59.576Z,88.21
2018-04-11T05:35:25.332Z,88.09
2018-04-11T05:37:51.053Z,87.99
2018-04-11T05:40:16.805Z,87.91
2018-04-11T05:42:42.523Z,88.30
2018-04-11T05:45:08.272Z,88.09
2018-04-11T05:47:34.005Z,88.15
2018-04-11T05:49:59.741Z,88.12
2018-04-11T05:52:25.489Z,88.05
2018-04-11T05:54:51.235Z,88.31
2018-04-11T05:57:16.973Z,88.54
2018-04-11T05:59:42.710Z,88.35
2018-04-11T06:02:08.448Z,88.03
2018-04-11T06:04:34.169Z,88.28
2018-04-11T06:06:59.917Z,88.39
2018-04-11T06:09:25.653Z,88.32
2018-04-11T06:11:51.407Z,88.67
2018-04-11T06:14:17.149Z,88.42
2018-04-11T06:16:42.896Z,88.65
2018-04-11T06:19:08.641Z,88.53
2018-04-11T06:21:34.377Z,88.19
2018-04-11T06:24:00.116Z,88.27
2018-04-11T06:28:58.457Z,88.39
2018-04-11T06:31:24.208Z,88.33
2018-04-11T06:33:50.026Z,88.08
2018-04-11T06:36:15.724Z,88.50
2018-04-11T06:38:41.464Z,88.71
2018-04-11T06:41:07.223Z,87.95
2018-04-11T06:43:32.970Z,88.48
2018-04-11T06:45:58.733Z,88.10
2018-04-11T06:48:24.469Z,87.69
2018-04-11T06:50:50.224Z,87.68
2018-04-11T06:53:15.996Z,88.00
2018-04-11T06:55:41.756Z,87.83
2018-04-11T06:58:07.516Z,87.63
2018-04-11T07:00:33.276Z,87.50
2018-04-11T07:02:59.029Z,87.04
2018-04-11T07:05:24.773Z,86.75
2018-04-11T07:07:50.533Z,86.78
2018-04-11T07:10:16.257Z,86.50
2018-04-11T07:12:42.037Z,86.95
2018-04-11T07:15:07.797Z,86.38
2018-04-11T07:17:33.544Z,86.49
2018-04-11T07:19:59.331Z,86.45
2018-04-11T07:22:25.065Z,86.29
2018-04-11T07:24:50.829Z,86.67
2018-04-11T07:27:16.585Z,86.25
2018-04-11T07:29:42.317Z,85.92
2018-04-11T07:32:08.062Z,85.58
2018-04-11T07:34:33.822Z,85.68
2018-04-11T07:36:59.580Z,85.28
2018-04-11T07:39:25.320Z,85.01
2018-04-11T07:41:51.071Z,85.52
2018-04-11T07:44:16.809Z,85.59
2018-04-11T07:46:42.557Z,85.83
2018-04-11T07:49:08.302Z,85.39
2018-04-11T07:51:34.129Z,85.77
2018-04-11T07:53:59.864Z,85.35
2018-04-11T07:56:25.618Z,85.25
2018-04-11T07:58:51.356Z,85.55
2018-04-11T08:01:17.100Z,85.32
2018-04-11T08:03:42.852Z,85.24
2018-04-11T08:06:08.617Z,84.97
2018-04-11T08:08:34.350Z,85.03
2018-04-11T08:11:00.096Z,84.91
2018-04-11T08:13:25.865Z,85.34
2018-04-11T08:15:51.610Z,85.94
2018-04-11T08:18:17.368Z,86.19
2018-04-11T08:20:43.117Z,86.29
2018-04-11T08:23:08.867Z,86.02
2018-04-11T08:25:34.602Z,86.28
2018-04-11T08:28:00.344Z,86.55
2018-04-11T08:30:26.079Z,86.46
2018-04-11T08:32:51.840Z,86.49
2018-04-11T08:35:17.592Z,86.06
2018-04-11T08:37:43.353Z,86.55
2018-04-11T08:40:09.108Z,86.61
2018-04-11T08:42:34.860Z,86.63
2018-04-11T08:45:00.630Z,87.22
2018-04-11T08:47:26.504Z,87.31
2018-04-11T08:49:52.178Z,86.88
2018-04-11T08:52:17.938Z,87.09
2018-04-11T08:54:43.693Z,87.72
2018-04-11T08:57:09.436Z,88.02
2018-04-11T08:59:35.167Z,87.28
2018-04-11T09:02:00.913Z,86.67
2018-04-11T09:04:26.649Z,86.63
2018-04-11T09:06:52.401Z,87.72
2018-04-11T09:09:18.153Z,87.34
2018-04-11T09:11:43.905Z,87.08
2018-04-11T09:14:09.646Z,88.14
2018-04-11T09:16:35.377Z,88.27
2018-04-11T09:19:01.140Z,88.61
2018-04-11T09:21:26.881Z,88.73
2018-04-11T09:23:52.624Z,89.68
2018-04-11T09:26:18.357Z,89.16
2018-04-11T09:28:44.105Z,89.97
2018-04-11T09:31:09.832Z,89.57
2018-04-11T09:33:35.576Z,89.66
2018-04-11T09:36:01.329Z,90.12
2018-04-11T09:38:27.093Z,89.88
2018-04-11T09:40:52.812Z,89.91
2018-04-11T09:43:18.565Z,89.89
2018-04-11T09:45:44.340Z,89.67
2018-04-11T09:48:10.089Z,90.12
2018-04-11T09:50:35.825Z,90.66
2018-04-11T09:53:01.574Z,90.96
2018-04-11T09:55:27.333Z,90.54
2018-04-11T09:57:53.073Z,89.90
2018-04-11T10:00:18.823Z,90.53
2018-04-11T10:02:44.588Z,90.70
2018-04-11T10:05:10.337Z,90.84
2018-04-11T10:07:36.097Z,90.52
2018-04-11T10:10:01.829Z,90.32
2018-04-11T10:12:27.588Z,90.76
2018-04-11T10:14:54.121Z,89.95
2018-04-11T10:17:19.872Z,89.69
2018-04-11T10:19:45.609Z,89.89
2018-04-11T10:22:11.356Z,89.62
2018-04-11T10:24:37.125Z,89.76
2018-04-11T10:27:02.877Z,89.47
2018-04-11T10:29:28.612Z,89.14
2018-04-11T10:31:54.344Z,89.46
2018-04-11T10:34:20.094Z,89.42
2018-04-11T10:36:45.820Z,89.31
2018-04-11T10:39:11.560Z,88.60
2018-04-11T10:41:37.321Z,88.50
2018-04-11T10:44:03.073Z,88.31
2018-04-11T10:46:28.819Z,88.50
2018-04-11T10:48:54.588Z,89.26
2018-04-11T10:51:20.324Z,88.93
2018-04-11T10:53:46.089Z,88.24
2018-04-11T10:56:11.825Z,89.10
2018-04-11T10:58:37.574Z,88.18
2018-04-11T11:01:03.312Z,87.27
2018-04-11T11:03:29.052Z,86.72
2018-04-11T11:05:54.792Z,86.79
2018-04-11T11:08:20.528Z,86.88
2018-04-11T11:10:46.252Z,86.37
2018-04-11T11:13:11.993Z,86.69
2018-04-11T11:15:37.761Z,87.13
2018-04-11T11:18:03.526Z,86.38
2018-04-11T11:20:29.281Z,85.86
2018-04-11T11:22:55.135Z,86.08
2018-04-11T11:25:20.893Z,84.79
2018-04-11T11:27:46.698Z,84.28
2018-04-11T11:30:12.444Z,84.65
2018-04-11T11:32:38.204Z,84.27
2018-04-11T11:35:05.073Z,84.25
2018-04-11T11:37:30.846Z,84.44
2018-04-11T11:39:56.607Z,84.52
2018-04-11T11:42:22.359Z,83.86
2018-04-11T11:44:48.109Z,83.93
2018-04-11T11:47:14.128Z,84.12
2018-04-11T11:49:40.063Z,84.16
2018-04-11T11:52:06.466Z,83.71
2018-04-11T11:54:32.617Z,83.26
2018-04-11T11:56:58.848Z,82.87
2018-04-11T11:59:24.629Z,82.83
2018-04-11T12:01:50.377Z,82.83
2018-04-11T12:04:16.160Z,82.65
2018-04-11T12:06:41.905Z,82.36
2018-04-11T12:09:07.669Z,82.29
2018-04-11T12:11:33.701Z,82.11
2018-04-11T12:13:59.441Z,82.48
2018-04-11T12:16:25.176Z,81.91
2018-04-11T12:18:50.917Z,82.19
2018-04-11T12:21:16.660Z,81.61
2018-04-11T12:23:42.407Z,81.62
2018-04-11T12:26:08.188Z,81.74
2018-04-11T12:28:33.954Z,83.04
2018-04-11T12:30:59.703Z,81.75
2018-04-11T12:35:57.896Z,81.18
2018-04-11T12:38:23.645Z,81.79
2018-04-11T12:40:49.399Z,81.70
2018-04-11T12:43:15.166Z,80.90
2018-04-11T12:45:40.936Z,80.73
2018-04-11T12:48:06.681Z,80.88
2018-04-11T12:50:32.448Z,79.95
2018-04-11T12:52:58.175Z,80.20
2018-04-11T12:55:23.917Z,80.18
2018-04-11T12:57:49.676Z,79.87
2018-04-11T13:00:15.433Z,79.52
2018-04-11T13:02:41.165Z,79.04
2018-04-11T13:05:06.923Z,79.58
2018-04-11T13:07:32.649Z,78.90
2018-04-11T13:09:58.385Z,79.04
2018-04-11T13:12:24.134Z,78.84
2018-04-11T13:14:49.881Z,79.30
2018-04-11T13:17:15.597Z,78.21
2018-04-11T13:19:41.328Z,78.12
2018-04-11T13:22:07.070Z,78.25
2018-04-11T13:24:33.325Z,78.03
2018-04-11T13:26:59.055Z,78.75
2018-04-11T13:29:24.801Z,78.39
2018-04-11T13:31:50.528Z,79.02
2018-04-11T13:34:16.270Z,78.65
2018-04-11T13:36:42.006Z,78.71
2018-04-11T13:39:07.753Z,79.08
2018-04-11T13:41:33.488Z,78.62
2018-04-11T13:43:59.256Z,78.87
2018-04-11T13:46:25.013Z,79.07
2018-04-11T13:48:57.933Z,78.11
2018-04-11T13:51:23.680Z,79.69
2018-04-11T13:53:49.563Z,79.20
2018-04-11T13:56:15.402Z,79.37
2018-04-11T13:58:41.139Z,80.19
2018-04-11T14:01:06.952Z,80.13
2018-04-11T14:03:32.678Z,79.36
2018-04-11T14:05:58.503Z,78.85
2018-04-11T14:08:24.290Z,78.55
2018-04-11T14:10:50.131Z,79.81
2018-04-11T14:13:15.878Z,80.18
2018-04-11T14:15:41.880Z,80.46
2018-04-11T14:18:07.620Z,80.03
2018-04-11T14:20:33.362Z,80.46
2018-04-11T14:22:59.099Z,80.03
2018-04-11T14:25:24.963Z,80.79
2018-04-11T14:27:50.660Z,80.17
2018-04-11T14:30:16.406Z,80.96
2018-04-11T14:32:42.144Z,80.96
2018-04-11T14:35:07.885Z,80.04
2018-04-11T14:37:33.608Z,80.69
2018-04-11T14:39:59.358Z,80.61
2018-04-11T14:42:25.164Z,80.43
2018-04-11T14:44:50.925Z,80.75
2018-04-11T14:47:16.671Z,80.53
2018-04-11T14:49:42.412Z,81.46
2018-04-11T14:52:08.145Z,80.99
2018-04-11T14:54:34.084Z,81.22
2018-04-11T14:56:59.838Z,80.47
2018-04-11T14:59:25.757Z,81.14
2018-04-11T15:01:51.497Z,81.29
2018-04-11T15:04:17.232Z,81.90
2018-04-11T15:06:42.976Z,81.72
2018-04-11T15:09:08.714Z,81.96
2018-04-11T15:11:34.475Z,81.75
2018-04-11T15:14:00.205Z,81.68
2018-04-11T15:16:25.942Z,81.52
2018-04-11T15:18:51.668Z,81.55
2018-04-11T15:21:17.417Z,82.02
2018-04-11T15:23:43.164Z,81.79
2018-04-11T15:26:08.918Z,81.46
2018-04-11T15:28:34.644Z,81.86
2018-04-11T15:31:00.395Z,81.55
2018-04-11T15:33:26.136Z,82.37
2018-04-11T15:35:51.893Z,82.31
2018-04-11T15:38:17.633Z,82.98
2018-04-11T15:40:43.404Z,83.82
2018-04-11T15:43:09.144Z,83.01
2018-04-11T15:45:34.917Z,83.12
2018-04-11T15:48:00.661Z,83.28
2018-04-11T15:50:26.404Z,83.60
2018-04-11T15:52:52.150Z,83.98
2018-04-11T15:55:19.416Z,83.87
2018-04-11T15:57:45.199Z,83.95
2018-04-11T16:00:10.956Z,83.77
2018-04-11T16:02:36.693Z,83.78
2018-04-11T16:05:02.461Z,83.93
2018-04-11T16:07:28.224Z,83.34
2018-04-11T16:09:53.960Z,83.83
2018-04-11T16:12:19.704Z,84.13
2018-04-11T16:14:45.439Z,84.23
2018-04-11T16:17:11.523Z,84.44
2018-04-11T16:19:37.252Z,84.68
2018-04-11T16:22:02.997Z,84.59
2018-04-11T16:24:30.773Z,84.53
2018-04-11T16:26:57.901Z,85.35
2018-04-11T16:29:23.664Z,85.33
2018-04-11T16:31:49.417Z,84.73
2018-04-11T16:34:15.191Z,84.86
2018-04-11T16:36:40.941Z,85.06
2018-04-11T16:39:06.676Z,85.03
2018-04-11T16:41:32.434Z,85.24
2018-04-11T16:43:58.161Z,85.40
2018-04-11T16:46:23.917Z,85.51
2018-04-11T16:48:49.649Z,85.56
2018-04-11T16:51:15.389Z,85.67
2018-04-11T16:53:41.124Z,85.64
2018-04-11T16:56:06.867Z,85.62
2018-04-11T16:58:32.615Z,86.19
2018-04-11T17:00:58.362Z,86.18
2018-04-11T17:03:24.119Z,86.10
2018-04-11T17:05:49.885Z,85.89
2018-04-11T17:08:15.628Z,86.00
2018-04-11T17:10:41.377Z,86.25
2018-04-11T17:13:07.142Z,86.35
2018-04-11T17:15:32.887Z,86.21
2018-04-11T17:17:58.629Z,86.58
2018-04-11T17:20:36.758Z,86.70
2018-04-11T17:23:14.904Z,86.50
2018-04-11T17:28:51.932Z,87.39
2018-04-11T17:31:23.644Z,87.59
2018-04-11T17:33:49.369Z,87.38
2018-04-11T17:36:15.135Z,87.59
2018-04-11T17:38:40.872Z,87.92
2018-04-11T17:41:06.609Z,87.70
2018-04-11T17:43:32.352Z,87.48
2018-04-11T17:45:58.083Z,87.78
2018-04-11T17:48:23.816Z,87.79
2018-04-11T17:50:49.552Z,87.70
2018-04-11T17:53:15.284Z,87.79
2018-04-11T17:55:41.016Z,87.95
2018-04-11T17:58:06.746Z,88.37
2018-04-11T18:00:32.493Z,88.06
2018-04-11T18:02:58.232Z,88.18
2018-04-11T18:05:23.965Z,88.61
2018-04-11T18:07:49.700Z,88.58
2018-04-11T18:10:15.437Z,88.35
2018-04-11T18:12:41.193Z,88.48
2018-04-11T18:15:06.939Z,88.63
2018-04-11T18:17:32.677Z,88.85
2018-04-11T18:19:58.436Z,88.73
2018-04-11T18:22:24.173Z,88.87
2018-04-11T18:24:49.900Z,88.77
2018-04-11T18:27:15.649Z,88.86
2018-04-11T18:29:41.372Z,88.85
2018-04-11T18:32:07.112Z,88.85
2018-04-11T18:34:32.868Z,88.76
2018-04-11T18:36:58.617Z,88.49
2018-04-11T18:39:24.364Z,88.32
2018-04-11T18:41:50.096Z,88.11
2018-04-11T18:44:15.845Z,88.14
2018-04-11T18:46:41.595Z,88.09
2018-04-11T18:49:07.357Z,88.16
2018-04-11T18:51:33.100Z,88.28
2018-04-11T18:53:58.859Z,88.22
2018-04-11T18:56:24.604Z,88.08
2018-04-11T18:58:50.361Z,87.61
2018-04-11T19:01:16.117Z,87.62
2018-04-11T19:03:41.884Z,87.63
2018-04-11T19:06:07.618Z,87.41
2018-04-11T19:08:33.381Z,87.36
2018-04-11T19:10:59.128Z,87.20
2018-04-11T19:13:24.910Z,87.25
2018-04-11T19:15:50.613Z,86.90
2018-04-11T19:18:16.384Z,86.66
2018-04-11T19:20:42.158Z,86.98
2018-04-11T19:23:07.903Z,86.42
2018-04-11T19:25:33.648Z,86.61
2018-04-11T19:27:59.389Z,86.30
2018-04-11T19:30:25.130Z,86.42
2018-04-11T19:32:50.883Z,86.21
2018-04-11T19:35:16.620Z,86.33
2018-04-11T19:37:42.366Z,86.13
2018-04-11T19:40:08.091Z,86.15
2018-04-11T19:42:33.851Z,86.21
2018-04-11T19:44:59.601Z,86.22
2018-04-11T19:47:25.367Z,85.62
2018-04-11T19:49:51.130Z,85.63
2018-04-11T19:52:16.861Z,85.92
2018-04-11T19:54:42.609Z,85.82
2018-04-11T19:57:08.329Z,85.87
2018-04-11T19:59:34.085Z,85.80
2018-04-11T20:01:59.830Z,85.91
2018-04-11T20:04:25.591Z,85.89
2018-04-11T20:06:51.331Z,85.94
2018-04-11T20:09:17.083Z,85.58
2018-04-11T20:11:42.825Z,85.62
2018-04-11T20:14:08.560Z,85.37
2018-04-11T20:16:34.320Z,85.46
2018-04-11T20:19:00.073Z,85.29
2018-04-11T20:21:25.821Z,85.42
2018-04-11T20:23:51.566Z,85.38
2018-04-11T20:26:17.302Z,85.75
2018-04-11T20:28:43.042Z,85.66
2018-04-11T20:31:08.773Z,85.39
2018-04-11T20:33:34.509Z,85.29
2018-04-11T20:36:00.301Z,85.29
2018-04-11T20:38:26.005Z,85.38
2018-04-11T20:40:51.726Z,84.96
2018-04-11T20:43:17.469Z,84.86
2018-04-11T20:45:43.200Z,84.99
2018-04-11T20:48:08.955Z,85.19
2018-04-11T20:50:34.665Z,85.21
2018-04-11T20:53:00.392Z,85.45
2018-04-11T20:55:26.135Z,85.69
2018-04-11T20:57:51.861Z,85.74
2018-04-11T21:00:17.598Z,85.89
2018-04-11T21:02:43.326Z,86.21
2018-04-11T21:05:09.069Z,86.37
2018-04-11T21:07:34.822Z,86.50
2018-04-11T21:10:00.576Z,86.49
2018-04-11T21:12:26.318Z,86.69
2018-04-11T21:14:52.047Z,86.61
2018-04-11T21:17:17.768Z,86.70
2018-04-11T21:19:43.525Z,86.98
2018-04-11T21:22:09.257Z,87.14
2018-04-11T21:24:34.992Z,87.11
2018-04-11T21:27:00.717Z,87.26
2018-04-11T21:29:26.453Z,87.28
2018-04-11T21:31:52.176Z,87.17
2018-04-11T21:34:17.927Z,87.04
2018-04-11T21:36:43.656Z,87.03
2018-04-11T21:39:09.385Z,86.98
2018-04-11T21:41:35.117Z,86.97
2018-04-11T21:44:00.872Z,86.95
2018-04-11T21:46:26.706Z,86.86
2018-04-11T21:48:53.471Z,86.97
2018-04-11T21:51:19.216Z,87.19
2018-04-11T21:53:45.413Z,87.05
2018-04-11T21:56:11.179Z,86.83
2018-04-11T21:58:36.901Z,86.79
2018-04-11T22:01:02.651Z,86.77
2018-04-11T22:03:28.386Z,86.79
2018-04-11T22:05:54.112Z,86.80
2018-04-11T22:08:19.832Z,86.71
2018-04-11T22:10:45.568Z,86.92
2018-04-11T22:13:11.308Z,86.95
2018-04-11T22:15:37.102Z,86.87
2018-04-11T22:18:02.849Z,87.03
2018-04-11T22:20:28.596Z,86.88
2018-04-11T22:22:54.313Z,86.77
2018-04-11T22:25:20.048Z,86.90
2018-04-11T22:27:45.793Z,86.69
2018-04-11T22:30:11.525Z,86.70
2018-04-11T22:32:37.252Z,86.43
2018-04-11T22:35:02.998Z,86.28
2018-04-11T22:37:28.726Z,86.29
2018-04-11T22:39:54.469Z,86.02
2018-04-11T22:42:20.241Z,86.05
2018-04-11T22:44:45.973Z,86.20
2018-04-11T22:47:11.722Z,85.88
2018-04-11T22:49:37.452Z,85.92
2018-04-11T22:52:03.196Z,86.10
2018-04-11T22:54:28.957Z,86.20
2018-04-11T22:56:54.700Z,86.07
2018-04-11T22:59:20.448Z,86.23
2018-04-11T23:01:46.172Z,86.27
2018-04-11T23:04:11.901Z,86.56
2018-04-11T23:06:37.637Z,86.38
2018-04-11T23:09:03.385Z,86.37
2018-04-11T23:11:29.125Z,86.33
2018-04-11T23:13:54.881Z,86.32
2018-04-11T23:16:20.653Z,86.24
2018-04-11T23:18:46.404Z,86.30
2018-04-11T23:21:12.147Z,86.32
2018-04-11T23:23:37.894Z,86.52
2018-04-11T23:26:03.624Z,86.74
2018-04-11T23:28:29.350Z,86.89
2018-04-11T23:30:55.085Z,86.93
2018-04-11T23:33:20.819Z,87.07
2018-04-11T23:35:46.552Z,87.18
2018-04-11T23:38:12.300Z,87.08
2018-04-11T23:40:38.038Z,87.06
2018-04-11T23:43:03.785Z,87.21
2018-04-11T23:45:29.535Z,87.18
2018-04-11T23:47:55.274Z,87.40
2018-04-11T23:50:21.019Z,87.37
2018-04-11T23:52:46.737Z,87.43
2018-04-11T23:55:12.479Z,87.46
2018-04-11T23:57:38.208Z,87.61
